Time;durP1;ratioP1;P1;durP2;ratioP2;P2;SDS_P1;SDS_P2;PMS_P1;PMS_P2;Temp;Humidity;BMP_temperature;BMP_pressure;BME280_temperature;BME280_humidity;BME280_pressure;Samples;Min_cycle;Max_cycle;Signal;HPM_P1;HPM_P2
2021/04/14 00:00:48;;;;;;;6.67;2.33;;;;;;;;;;5090553;28;20039;-67
2021/04/14 00:03:19;;;;;;;8.57;2.33;;;;;;;;;;5092338;28;20024;-67
2021/04/14 00:05:44;;;;;;;5.90;2.57;;;;;;;;;;5093953;28;20131;-67
2021/04/14 00:08:10;;;;;;;7.53;2.53;;;;;;;;;;5091106;28;20361;-67
2021/04/14 00:10:36;;;;;;;8.33;2.40;;;;;;;;;;5088121;28;20020;-67
2021/04/14 00:13:03;;;;;;;9.10;2.87;;;;;;;;;;5093348;28;20030;-67
2021/04/14 00:15:36;;;;;;;7.33;2.80;;;;;;;;;;5084509;28;20420;-67
2021/04/14 00:18:02;;;;;;;8.67;2.90;;;;;;;;;;5090615;28;20309;-67
2021/04/14 00:20:27;;;;;;;9.83;3.03;;;;;;;;;;5088418;28;20332;-67
2021/04/14 00:22:53;;;;;;;6.17;2.93;;;;;;;;;;5092409;28;20016;-67
2021/04/14 00:25:22;;;;;;;7.20;3.40;;;;;;;;;;5077248;28;20031;-67
2021/04/14 00:27:47;;;;;;;7.23;2.57;;;;;;;;;;5088351;28;20027;-67
2021/04/14 00:30:13;;;;;;;18.47;3.33;;;;;;;;;;5078703;28;20267;-67
2021/04/14 00:32:38;;;;;;;8.77;3.20;;;;;;;;;;5085179;28;20107;-67
2021/04/14 00:35:04;;;;;;;9.27;3.20;;;;;;;;;;5083985;28;20094;-67
2021/04/14 00:37:29;;;;;;;7.27;2.90;;;;;;;;;;5090113;28;20032;-67
2021/04/14 00:39:55;;;;;;;6.57;3.00;;;;;;;;;;5091789;28;20016;-67
2021/04/14 00:42:20;;;;;;;6.63;3.03;;;;;;;;;;5091103;28;20115;-67
2021/04/14 00:44:47;;;;;;;9.13;3.40;;;;;;;;;;5090679;28;20027;-67
2021/04/14 00:47:13;;;;;;;10.17;3.07;;;;;;;;;;5090543;28;20031;-67
2021/04/14 00:49:38;;;;;;;10.07;3.10;;;;;;;;;;5088384;28;20279;-67
2021/04/14 00:52:03;;;;;;;9.03;2.90;;;;;;;;;;5088528;28;20107;-67
2021/04/14 00:54:29;;;;;;;7.47;3.37;;;;;;;;;;5091460;28;20503;-67
2021/04/14 00:56:54;;;;;;;8.07;3.20;;;;;;;;;;5086394;28;20031;-67
2021/04/14 00:59:19;;;;;;;7.60;3.20;;;;;;;;;;5092114;28;20388;-67
2021/04/14 01:01:44;;;;;;;12.10;3.27;;;;;;;;;;5083425;28;20081;-67
2021/04/14 01:04:10;;;;;;;6.53;3.70;;;;;;;;;;5072639;28;20140;-67
2021/04/14 01:06:35;;;;;;;11.20;3.60;;;;;;;;;;5087392;28;20110;-67
2021/04/14 01:09:00;;;;;;;11.20;3.37;;;;;;;;;;5083705;28;20032;-67
2021/04/14 01:11:27;;;;;;;8.90;3.60;;;;;;;;;;5083783;28;20030;-67
2021/04/14 01:13:52;;;;;;;10.87;3.30;;;;;;;;;;5088656;28;20020;-67
2021/04/14 01:16:17;;;;;;;9.50;3.80;;;;;;;;;;5088282;28;20692;-67
2021/04/14 01:18:43;;;;;;;11.17;3.57;;;;;;;;;;5089000;28;20123;-67
2021/04/14 01:21:19;;;;;;;12.70;3.40;;;;;;;;;;5089285;28;20081;-67
2021/04/14 01:23:45;;;;;;;7.70;3.57;;;;;;;;;;5084313;28;20103;-67
2021/04/14 01:26:10;;;;;;;9.70;3.60;;;;;;;;;;5081364;28;20357;-67
2021/04/14 01:28:39;;;;;;;7.87;3.53;;;;;;;;;;5083364;28;20059;-67
2021/04/14 01:31:07;;;;;;;18.60;4.40;;;;;;;;;;5088886;28;20028;-67
2021/04/14 01:33:33;;;;;;;10.63;4.03;;;;;;;;;;5087224;28;20298;-67
2021/04/14 01:35:59;;;;;;;14.57;4.00;;;;;;;;;;5089462;28;20311;-67
2021/04/14 01:38:24;;;;;;;10.17;3.60;;;;;;;;;;5086902;28;20024;-67
2021/04/14 01:40:49;;;;;;;10.20;3.33;;;;;;;;;;5090093;28;20099;-67
2021/04/14 01:43:15;;;;;;;12.83;4.43;;;;;;;;;;5087363;28;20020;-67
2021/04/14 01:45:41;;;;;;;8.13;3.27;;;;;;;;;;5087611;28;20050;-67
2021/04/14 01:48:07;;;;;;;7.67;3.53;;;;;;;;;;5080913;28;20028;-67
2021/04/14 01:50:33;;;;;;;17.07;4.00;;;;;;;;;;5089221;28;20372;-67
2021/04/14 01:52:59;;;;;;;14.53;3.83;;;;;;;;;;5088383;28;20361;-67
2021/04/14 01:55:25;;;;;;;12.33;3.60;;;;;;;;;;5088813;28;20035;-67
2021/04/14 01:57:50;;;;;;;9.50;3.70;;;;;;;;;;5087936;28;20274;-67
2021/04/14 02:00:18;;;;;;;15.80;4.63;;;;;;;;;;5087346;28;20028;-67
2021/04/14 02:02:44;;;;;;;18.03;3.60;;;;;;;;;;5089475;28;20024;-67
2021/04/14 02:05:09;;;;;;;12.73;4.30;;;;;;;;;;5088784;28;20692;-67
2021/04/14 02:07:35;;;;;;;15.87;4.20;;;;;;;;;;5088258;28;20024;-67
2021/04/14 02:10:00;;;;;;;10.17;4.10;;;;;;;;;;5077774;28;20081;-67
2021/04/14 02:12:25;;;;;;;18.30;3.90;;;;;;;;;;5080980;28;20392;-67
2021/04/14 02:14:51;;;;;;;10.77;3.93;;;;;;;;;;5078687;28;20115;-67
2021/04/14 02:17:16;;;;;;;13.40;3.73;;;;;;;;;;5085786;28;20028;-67
2021/04/14 02:19:41;;;;;;;10.07;4.17;;;;;;;;;;5091503;28;20488;-67
2021/04/14 02:22:06;;;;;;;9.53;3.97;;;;;;;;;;5087178;28;20025;-67
2021/04/14 02:24:32;;;;;;;10.97;4.23;;;;;;;;;;5088130;28;20504;-67
2021/04/14 02:26:57;;;;;;;10.80;4.63;;;;;;;;;;5087288;28;20024;-67
2021/04/14 02:29:22;;;;;;;12.43;3.60;;;;;;;;;;5079462;28;20384;-67
2021/04/14 02:31:47;;;;;;;11.10;3.90;;;;;;;;;;5089624;28;20020;-67
2021/04/14 02:34:13;;;;;;;11.03;3.73;;;;;;;;;;5092379;28;20020;-67
2021/04/14 02:36:39;;;;;;;10.30;4.40;;;;;;;;;;5088922;28;20487;-67
2021/04/14 02:39:07;;;;;;;8.33;3.40;;;;;;;;;;5085877;28;20289;-67
2021/04/14 02:41:32;;;;;;;9.13;3.70;;;;;;;;;;5082713;28;20023;-67
2021/04/14 02:43:57;;;;;;;12.20;3.70;;;;;;;;;;5089952;28;20348;-67
2021/04/14 02:46:29;;;;;;;8.03;3.87;;;;;;;;;;5086159;28;20020;-67
2021/04/14 02:48:54;;;;;;;8.05;3.67;;;;;;;;;;5077111;28;20107;-67
2021/04/14 02:51:20;;;;;;;11.20;4.43;;;;;;;;;;5091804;28;20108;-67
2021/04/14 02:53:45;;;;;;;8.37;4.43;;;;;;;;;;5089645;28;20028;-67
2021/04/14 02:56:10;;;;;;;8.47;4.13;;;;;;;;;;5091818;28;20500;-68
2021/04/14 02:58:35;;;;;;;8.57;3.90;;;;;;;;;;5082452;28;20023;-68
2021/04/14 03:01:01;;;;;;;9.37;4.50;;;;;;;;;;5085539;28;20018;-68
2021/04/14 03:03:27;;;;;;;8.43;4.43;;;;;;;;;;5081304;28;20492;-69
2021/04/14 03:05:53;;;;;;;12.40;4.03;;;;;;;;;;5089797;28;20036;-68
2021/04/14 03:08:18;;;;;;;8.27;3.97;;;;;;;;;;5097810;28;20078;-68
2021/04/14 03:10:43;;;;;;;9.87;4.37;;;;;;;;;;5092806;28;20031;-68
2021/04/14 03:13:09;;;;;;;9.13;3.90;;;;;;;;;;5093473;28;20519;-68
2021/04/14 03:15:35;;;;;;;13.40;4.10;;;;;;;;;;5090224;28;20035;-68
2021/04/14 03:18:01;;;;;;;10.47;4.80;;;;;;;;;;5089623;28;20067;-68
2021/04/14 03:20:26;;;;;;;7.87;4.03;;;;;;;;;;5089734;28;20258;-68
2021/04/14 03:22:54;;;;;;;12.57;4.60;;;;;;;;;;5074241;28;20023;-68
2021/04/14 03:25:20;;;;;;;8.37;3.67;;;;;;;;;;5076719;28;20036;-68
2021/04/14 03:27:45;;;;;;;11.23;4.50;;;;;;;;;;5079422;28;20796;-68
2021/04/14 03:30:11;;;;;;;10.70;4.30;;;;;;;;;;5080529;28;20036;-68
2021/04/14 03:32:36;;;;;;;9.87;4.00;;;;;;;;;;5075206;28;20057;-68
2021/04/14 03:35:03;;;;;;;14.27;4.83;;;;;;;;;;5078198;28;20368;-68
2021/04/14 03:37:28;;;;;;;14.27;4.70;;;;;;;;;;5092856;28;20377;-68
2021/04/14 03:39:53;;;;;;;11.73;4.63;;;;;;;;;;5092082;28;20289;-68
2021/04/14 03:42:19;;;;;;;13.47;4.90;;;;;;;;;;5077960;28;20166;-68
2021/04/14 03:44:46;;;;;;;13.43;4.97;;;;;;;;;;5080503;28;20008;-68
2021/04/14 03:47:11;;;;;;;14.13;4.87;;;;;;;;;;5092197;28;20031;-68
2021/04/14 03:49:36;;;;;;;10.23;4.60;;;;;;;;;;5084615;28;20687;-68
2021/04/14 03:52:02;;;;;;;16.83;4.73;;;;;;;;;;5089114;28;20020;-68
2021/04/14 03:54:28;;;;;;;16.10;4.93;;;;;;;;;;5092610;28;20035;-68
2021/04/14 03:56:53;;;;;;;12.50;4.47;;;;;;;;;;5092150;28;20456;-68
2021/04/14 03:59:19;;;;;;;12.03;4.80;;;;;;;;;;5082676;28;20512;-68
2021/04/14 04:01:44;;;;;;;12.73;5.13;;;;;;;;;;5087553;28;20523;-68
2021/04/14 04:04:09;;;;;;;11.10;4.50;;;;;;;;;;5091763;28;20392;-68
2021/04/14 04:06:35;;;;;;;10.43;4.70;;;;;;;;;;5091271;28;20020;-68
2021/04/14 04:09:00;;;;;;;8.97;4.60;;;;;;;;;;5092546;28;20020;-68
2021/04/14 04:11:25;;;;;;;8.83;4.60;;;;;;;;;;5092783;28;20043;-68
2021/04/14 04:13:51;;;;;;;11.63;4.80;;;;;;;;;;5090114;28;20145;-68
2021/04/14 04:16:18;;;;;;;10.40;4.77;;;;;;;;;;5088679;28;20048;-68
2021/04/14 04:18:43;;;;;;;11.03;4.83;;;;;;;;;;5089806;28;20297;-68
2021/04/14 04:21:08;;;;;;;10.47;5.07;;;;;;;;;;5091487;28;20173;-68
2021/04/14 04:23:34;;;;;;;16.50;5.93;;;;;;;;;;5090568;28;20024;-68
2021/04/14 04:25:59;;;;;;;10.73;4.57;;;;;;;;;;5087718;28;20020;-68
2021/04/14 04:28:25;;;;;;;12.50;5.30;;;;;;;;;;5074925;28;20430;-68
2021/04/14 04:30:51;;;;;;;10.00;5.13;;;;;;;;;;5087908;28;20538;-68
2021/04/14 04:33:16;;;;;;;10.63;5.63;;;;;;;;;;5072301;28;20381;-68
2021/04/14 04:35:42;;;;;;;13.27;5.23;;;;;;;;;;5074592;28;20369;-68
2021/04/14 04:38:07;;;;;;;13.67;5.47;;;;;;;;;;5084974;28;20469;-68
2021/04/14 04:40:32;;;;;;;13.67;5.07;;;;;;;;;;5086965;28;20492;-68
2021/04/14 04:42:58;;;;;;;12.10;5.50;;;;;;;;;;5091300;28;20023;-68
2021/04/14 04:45:25;;;;;;;15.20;5.57;;;;;;;;;;5089525;28;20024;-68
2021/04/14 04:47:50;;;;;;;12.60;5.80;;;;;;;;;;5087960;28;20026;-68
2021/04/14 04:50:16;;;;;;;12.83;6.20;;;;;;;;;;5081780;28;20274;-68
2021/04/14 04:52:41;;;;;;;15.77;6.30;;;;;;;;;;5087846;28;20122;-68
2021/04/14 04:55:07;;;;;;;12.07;5.70;;;;;;;;;;5089846;28;20065;-69
2021/04/14 04:57:32;;;;;;;11.10;5.70;;;;;;;;;;5082049;28;20110;-68
2021/04/14 04:59:58;;;;;;;13.77;6.53;;;;;;;;;;5091458;28;20365;-68
2021/04/14 05:02:23;;;;;;;12.57;5.83;;;;;;;;;;5089543;28;20024;-68
2021/04/14 05:04:48;;;;;;;12.20;6.53;;;;;;;;;;5089394;28;20062;-68
2021/04/14 05:07:14;;;;;;;17.60;6.57;;;;;;;;;;5082246;28;20130;-68
2021/04/14 05:09:39;;;;;;;19.60;7.60;;;;;;;;;;5088550;28;20036;-68
2021/04/14 05:12:04;;;;;;;12.77;6.37;;;;;;;;;;5089852;28;20032;-68
2021/04/14 05:14:30;;;;;;;13.70;6.67;;;;;;;;;;5085977;28;20040;-68
2021/04/14 05:16:55;;;;;;;15.40;6.50;;;;;;;;;;5090612;28;20039;-68
2021/04/14 05:19:20;;;;;;;11.30;6.07;;;;;;;;;;5090485;28;20031;-68
2021/04/14 05:21:46;;;;;;;13.37;5.37;;;;;;;;;;5088315;28;20134;-68
2021/04/14 05:24:11;;;;;;;16.30;5.37;;;;;;;;;;5090906;28;20379;-68
2021/04/14 05:26:37;;;;;;;11.53;4.73;;;;;;;;;;5084115;28;20383;-68
2021/04/14 05:29:03;;;;;;;9.17;4.60;;;;;;;;;;5088797;28;20379;-68
2021/04/14 05:31:29;;;;;;;9.97;3.93;;;;;;;;;;5086982;28;20035;-68
2021/04/14 05:33:58;;;;;;;9.87;4.00;;;;;;;;;;5090756;28;20131;-68
2021/04/14 05:36:24;;;;;;;11.07;5.00;;;;;;;;;;5090721;28;20407;-68
2021/04/14 05:38:49;;;;;;;6.47;3.80;;;;;;;;;;5090801;28;20381;-68
2021/04/14 05:41:16;;;;;;;7.17;3.40;;;;;;;;;;5087355;28;20046;-68
2021/04/14 05:43:41;;;;;;;9.90;3.17;;;;;;;;;;5090111;28;20047;-68
2021/04/14 05:46:08;;;;;;;7.73;3.63;;;;;;;;;;5085876;28;20274;-69
2021/04/14 05:48:34;;;;;;;8.30;3.30;;;;;;;;;;5089015;28;21929;-68
2021/04/14 05:51:04;;;;;;;6.33;2.40;;;;;;;;;;5082991;28;20635;-69
2021/04/14 05:53:29;;;;;;;7.20;2.37;;;;;;;;;;5078404;28;20032;-69
2021/04/14 05:55:54;;;;;;;8.07;2.70;;;;;;;;;;5085472;28;20271;-69
2021/04/14 05:58:20;;;;;;;7.73;2.30;;;;;;;;;;5081604;28;20029;-69
2021/04/14 06:00:45;;;;;;;8.00;2.63;;;;;;;;;;5078500;28;20135;-70
2021/04/14 06:03:10;;;;;;;7.27;2.50;;;;;;;;;;5077020;28;20111;-70
2021/04/14 06:05:35;;;;;;;7.40;3.03;;;;;;;;;;5086953;28;20055;-71
2021/04/14 06:08:01;;;;;;;6.07;2.10;;;;;;;;;;5079393;28;20547;-72
2021/04/14 06:10:26;;;;;;;4.97;2.03;;;;;;;;;;5078861;28;20036;-72
2021/04/14 06:12:52;;;;;;;5.47;2.50;;;;;;;;;;5081565;28;20427;-72
2021/04/14 06:15:19;;;;;;;4.40;2.30;;;;;;;;;;5076357;28;20032;-73
2021/04/14 06:17:45;;;;;;;4.37;1.70;;;;;;;;;;5073585;28;20034;-73
2021/04/14 06:20:13;;;;;;;5.83;2.20;;;;;;;;;;5078969;28;20111;-74
2021/04/14 06:22:38;;;;;;;4.97;1.83;;;;;;;;;;5079600;28;20145;-73
2021/04/14 06:25:07;;;;;;;4.63;1.80;;;;;;;;;;5090431;28;20036;-74
2021/04/14 06:27:38;;;;;;;6.63;2.07;;;;;;;;;;5095784;28;20024;-74
2021/04/14 06:30:04;;;;;;;4.80;1.77;;;;;;;;;;5084271;28;20089;-72
2021/04/14 06:32:29;;;;;;;4.07;1.60;;;;;;;;;;5097540;28;20039;-71
2021/04/14 06:34:54;;;;;;;5.13;1.80;;;;;;;;;;5096918;28;20092;-71
2021/04/14 06:37:20;;;;;;;4.03;1.30;;;;;;;;;;5094830;28;20039;-71
2021/04/14 06:39:53;;;;;;;4.33;1.70;;;;;;;;;;5091910;28;20085;-71
2021/04/14 06:42:45;;;;;;;5.73;1.60;;;;;;;;;;5098765;28;20020;-71
2021/04/14 06:45:10;;;;;;;4.70;2.22;;;;;;;;;;5091976;28;20475;-71
2021/04/14 06:47:51;;;;;;;4.50;1.93;;;;;;;;;;5086910;28;20106;-73
2021/04/14 06:50:20;;;;;;;3.83;1.70;;;;;;;;;;5085174;28;20070;-74
2021/04/14 06:52:51;;;;;;;6.80;1.97;;;;;;;;;;5086932;28;20020;-73
2021/04/14 06:55:20;;;;;;;5.87;1.40;;;;;;;;;;5082376;28;20115;-71
2021/04/14 06:57:52;;;;;;;3.43;1.77;;;;;;;;;;5086465;28;20073;-70
2021/04/14 07:00:20;;;;;;;5.53;1.43;;;;;;;;;;5080689;28;20088;-70
2021/04/14 07:02:51;;;;;;;2.57;1.30;;;;;;;;;;5092310;28;20413;-70
2021/04/14 07:05:22;;;;;;;3.10;1.40;;;;;;;;;;5082353;28;20061;-70
2021/04/14 07:07:49;;;;;;;7.07;1.60;;;;;;;;;;5097559;28;20023;-70
2021/04/14 07:10:19;;;;;;;4.13;1.60;;;;;;;;;;5089371;28;20028;-69
2021/04/14 07:12:44;;;;;;;6.53;2.00;;;;;;;;;;5094940;28;20020;-69
2021/04/14 07:15:10;;;;;;;3.93;1.47;;;;;;;;;;5084171;28;20032;-70
2021/04/14 07:17:39;;;;;;;8.47;2.00;;;;;;;;;;5097848;28;20474;-71
2021/04/14 07:20:39;;;;;;;5.60;1.60;;;;;;;;;;5096467;28;20028;-71
2021/04/14 07:23:13;;;;;;;5.50;1.80;;;;;;;;;;5016632;28;20521;-72
2021/04/14 07:25:57;;;;;;;6.30;1.47;;;;;;;;;;5078015;28;20041;-72
2021/04/14 07:28:31;;;;;;;7.97;1.70;;;;;;;;;;5094574;28;20408;-70
2021/04/14 07:30:59;;;;;;;7.47;1.53;;;;;;;;;;5090486;28;20031;-70
2021/04/14 07:33:39;;;;;;;4.67;1.60;;;;;;;;;;5093593;28;20117;-70
2021/04/14 07:36:11;;;;;;;5.10;1.20;;;;;;;;;;5083646;28;20036;-70
2021/04/14 07:38:42;;;;;;;5.23;1.40;;;;;;;;;;5094929;28;20365;-71
2021/04/14 07:41:12;;;;;;;5.35;1.52;;;;;;;;;;5085978;28;20475;-71
2021/04/14 07:43:46;;;;;;;4.50;1.47;;;;;;;;;;5092552;28;20088;-73
2021/04/14 07:46:14;;;;;;;6.00;1.17;;;;;;;;;;5083689;28;20113;-73
2021/04/14 07:48:39;;;;;;;3.97;1.23;;;;;;;;;;5093736;28;20035;-74
2021/04/14 07:51:09;;;;;;;3.63;1.10;;;;;;;;;;5088890;28;20020;-72
2021/04/14 07:53:39;;;;;;;4.57;1.20;;;;;;;;;;5088390;28;20441;-70
2021/04/14 07:56:20;;;;;;;6.87;1.37;;;;;;;;;;5087058;28;20128;-70
2021/04/14 07:58:46;;;;;;;3.40;1.10;;;;;;;;;;5085252;28;20032;-70
2021/04/14 08:01:17;;;;;;;9.27;1.50;;;;;;;;;;5092365;28;20016;-69
2021/04/14 08:03:42;;;;;;;3.33;1.27;;;;;;;;;;5093294;28;20206;-69
2021/04/14 08:06:16;;;;;;;2.57;1.10;;;;;;;;;;5089507;28;20120;-69
2021/04/14 08:08:42;;;;;;;7.33;1.63;;;;;;;;;;5094438;28;20379;-70
2021/04/14 08:11:14;;;;;;;3.13;0.90;;;;;;;;;;5089267;28;20024;-72
2021/04/14 08:13:41;;;;;;;1.77;0.85;;;;;;;;;;5092994;28;20035;-74
2021/04/14 08:16:15;;;;;;;2.53;0.90;;;;;;;;;;5085899;28;20082;-75
2021/04/14 08:18:48;;;;;;;6.87;0.90;;;;;;;;;;5094020;28;20162;-75
2021/04/14 08:21:17;;;;;;;2.77;0.90;;;;;;;;;;5086576;28;20020;-76
2021/04/14 08:23:53;;;;;;;9.20;1.10;;;;;;;;;;5090319;28;20073;-74
2021/04/14 08:26:20;;;;;;;2.23;0.80;;;;;;;;;;5080299;28;20111;-71
2021/04/14 08:28:47;;;;;;;3.10;0.73;;;;;;;;;;5092979;28;20103;-69
2021/04/14 08:31:21;;;;;;;5.83;1.10;;;;;;;;;;5084050;28;20031;-69
2021/04/14 08:33:47;;;;;;;4.00;1.00;;;;;;;;;;5092030;28;20024;-69
2021/04/14 08:36:20;;;;;;;3.57;0.93;;;;;;;;;;5083246;28;20427;-69
2021/04/14 08:38:46;;;;;;;5.20;1.20;;;;;;;;;;5088768;28;20047;-68
2021/04/14 08:41:24;;;;;;;6.17;0.93;;;;;;;;;;5083461;28;20412;-69
2021/04/14 08:43:52;;;;;;;6.30;1.00;;;;;;;;;;5081577;28;20024;-68
2021/04/14 08:46:24;;;;;;;4.50;1.00;;;;;;;;;;5084857;28;20035;-69
2021/04/14 08:48:51;;;;;;;4.22;1.55;;;;;;;;;;5093347;28;20039;-69
2021/04/14 08:51:17;;;;;;;5.07;0.80;;;;;;;;;;5083005;28;20032;-72
2021/04/14 08:53:44;;;;;;;1.90;0.80;;;;;;;;;;5093526;28;20107;-74
2021/04/14 08:56:11;;;;;;;2.87;0.80;;;;;;;;;;5086544;28;20028;-75
2021/04/14 08:58:36;;;;;;;2.63;0.70;;;;;;;;;;5086581;28;20039;-73
2021/04/14 09:01:02;;;;;;;6.47;0.77;;;;;;;;;;5090211;28;20462;-70
2021/04/14 09:03:30;;;;;;;2.80;0.70;;;;;;;;;;5090989;28;20039;-70
2021/04/14 09:05:56;;;;;;;3.40;0.60;;;;;;;;;;5081511;28;20032;-69
2021/04/14 09:08:23;;;;;;;3.73;0.80;;;;;;;;;;5086611;28;20173;-68
2021/04/14 09:10:54;;;;;;;5.53;0.90;;;;;;;;;;5080772;28;20031;-68
2021/04/14 09:13:35;;;;;;;2.90;0.90;;;;;;;;;;5091756;28;20089;-68
2021/04/14 09:16:02;;;;;;;6.13;0.80;;;;;;;;;;5084773;28;20032;-68
2021/04/14 09:18:41;;;;;;;3.43;0.87;;;;;;;;;;5090235;28;20024;-68
2021/04/14 09:21:06;;;;;;;3.70;0.73;;;;;;;;;;5086502;28;20028;-68
2021/04/14 09:23:31;;;;;;;5.17;0.90;;;;;;;;;;5086441;28;20020;-68
2021/04/14 09:26:00;;;;;;;3.63;0.90;;;;;;;;;;5076868;28;20024;-69
2021/04/14 09:28:28;;;;;;;5.13;1.33;;;;;;;;;;5079336;28;20024;-70
2021/04/14 09:30:55;;;;;;;4.80;0.70;;;;;;;;;;5089888;28;20028;-72
2021/04/14 09:33:36;;;;;;;4.17;0.73;;;;;;;;;;5090662;28;20115;-73
2021/04/14 09:36:04;;;;;;;2.20;0.57;;;;;;;;;;5080929;28;20030;-74
2021/04/14 09:38:34;;;;;;;1.47;0.60;;;;;;;;;;5092521;28;20036;-73
2021/04/14 09:41:14;;;;;;;2.67;0.70;;;;;;;;;;5082187;28;20027;-72
2021/04/14 09:43:44;;;;;;;1.47;0.50;;;;;;;;;;5091019;28;20032;-70
2021/04/14 09:46:11;;;;;;;4.83;0.77;;;;;;;;;;5086164;28;20012;-69
2021/04/14 09:48:44;;;;;;;2.10;0.87;;;;;;;;;;5084056;28;20054;-69
2021/04/14 09:51:16;;;;;;;4.07;0.90;;;;;;;;;;5082005;28;20024;-69
2021/04/14 09:53:42;;;;;;;1.00;0.57;;;;;;;;;;5091136;28;20024;-72
2021/04/14 09:56:12;;;;;;;3.80;0.80;;;;;;;;;;5085617;28;20205;-72
2021/04/14 09:58:43;;;;;;;3.60;0.83;;;;;;;;;;5088275;28;20020;-73
2021/04/14 10:01:14;;;;;;;2.22;0.63;;;;;;;;;;5088498;28;20019;-73
2021/04/14 10:03:43;;;;;;;6.80;1.00;;;;;;;;;;5089707;28;20486;-73
2021/04/14 10:06:09;;;;;;;3.75;0.70;;;;;;;;;;5088315;28;20099;-73
2021/04/14 10:08:36;;;;;;;2.20;0.50;;;;;;;;;;5091106;28;20023;-74
2021/04/14 10:11:01;;;;;;;0.75;0.45;;;;;;;;;;5073238;28;20373;-73
2021/04/14 10:13:28;;;;;;;6.88;1.10;;;;;;;;;;5087597;28;20019;-72
2021/04/14 10:15:53;;;;;;;1.17;0.45;;;;;;;;;;5086845;28;20024;-70
2021/04/14 10:18:18;;;;;;;3.57;1.07;;;;;;;;;;5092153;28;20091;-69
2021/04/14 10:20:43;;;;;;;3.17;1.00;;;;;;;;;;5089685;28;20472;-69
2021/04/14 10:23:10;;;;;;;5.73;0.70;;;;;;;;;;5084797;28;20020;-69
2021/04/14 10:25:36;;;;;;;2.13;0.73;;;;;;;;;;5079571;28;20491;-70
2021/04/14 10:28:01;;;;;;;1.13;0.50;;;;;;;;;;5074175;28;20016;-70
2021/04/14 10:30:28;;;;;;;4.00;0.60;;;;;;;;;;5088244;28;20028;-70
2021/04/14 10:33:00;;;;;;;1.67;0.53;;;;;;;;;;5091230;28;20065;-70
2021/04/14 10:35:27;;;;;;;2.35;0.57;;;;;;;;;;5082360;28;20025;-70
2021/04/14 10:37:53;;;;;;;3.05;0.68;;;;;;;;;;5088468;28;20518;-70
2021/04/14 10:40:38;;;;;;;2.13;0.52;;;;;;;;;;5083688;28;20134;-68
2021/04/14 10:43:19;;;;;;;2.35;0.60;;;;;;;;;;5077586;28;20040;-68
2021/04/14 10:46:11;;;;;;;1.57;0.67;;;;;;;;;;5081636;28;20025;-68
2021/04/14 10:48:38;;;;;;;1.90;0.47;;;;;;;;;;5077773;28;20498;-68
2021/04/14 10:51:05;;;;;;;0.80;0.40;;;;;;;;;;5082798;28;20369;-69
2021/04/14 10:53:35;;;;;;;3.53;0.57;;;;;;;;;;5083694;28;20552;-68
2021/04/14 10:56:01;;;;;;;2.00;0.50;;;;;;;;;;5076407;28;20093;-67
2021/04/14 10:58:28;;;;;;;2.87;0.50;;;;;;;;;;5087406;28;20036;-67
2021/04/14 11:00:54;;;;;;;3.97;0.70;;;;;;;;;;5077536;28;20118;-67
2021/04/14 11:03:20;;;;;;;2.90;0.70;;;;;;;;;;5083831;28;20099;-68
2021/04/14 11:05:47;;;;;;;4.17;0.97;;;;;;;;;;5076894;28;20134;-68
2021/04/14 11:08:14;;;;;;;2.70;1.00;;;;;;;;;;5090105;28;20112;-68
2021/04/14 11:10:40;;;;;;;6.43;1.57;;;;;;;;;;5074867;28;20032;-68
2021/04/14 11:13:09;;;;;;;5.50;1.00;;;;;;;;;;5083652;28;20024;-69
2021/04/14 11:15:39;;;;;;;2.90;0.90;;;;;;;;;;5081525;28;20047;-68
2021/04/14 11:18:05;;;;;;;3.13;0.90;;;;;;;;;;5092451;28;20464;-68
2021/04/14 11:20:43;;;;;;;2.43;0.90;;;;;;;;;;5092632;28;20039;-68
2021/04/14 11:23:34;;;;;;;2.20;1.00;;;;;;;;;;5083763;28;20713;-67
2021/04/14 11:26:10;;;;;;;3.47;0.90;;;;;;;;;;5085810;28;20059;-67
2021/04/14 11:28:40;;;;;;;7.73;0.90;;;;;;;;;;5086259;28;20750;-68
2021/04/14 11:31:06;;;;;;;1.73;0.80;;;;;;;;;;5086102;28;20020;-68
2021/04/14 11:33:39;;;;;;;5.77;0.63;;;;;;;;;;5093030;28;20570;-68
2021/04/14 11:36:15;;;;;;;4.83;0.90;;;;;;;;;;5083732;28;20028;-68
2021/04/14 11:38:42;;;;;;;1.33;0.70;;;;;;;;;;5092948;28;20460;-68
2021/04/14 11:41:25;;;;;;;1.67;0.80;;;;;;;;;;5084145;28;20028;-68
2021/04/14 11:43:50;;;;;;;2.77;0.77;;;;;;;;;;5094886;28;20410;-68
2021/04/14 11:46:35;;;;;;;2.03;0.53;;;;;;;;;;5085291;28;20032;-67
2021/04/14 11:49:03;;;;;;;0.73;0.50;;;;;;;;;;5090075;28;20024;-67
2021/04/14 11:51:28;;;;;;;5.37;0.70;;;;;;;;;;5086222;28;20028;-67
2021/04/14 11:53:55;;;;;;;4.07;0.60;;;;;;;;;;5094495;28;20555;-67
2021/04/14 11:56:23;;;;;;;3.50;0.50;;;;;;;;;;5086253;28;20056;-68
2021/04/14 11:58:48;;;;;;;2.53;0.50;;;;;;;;;;5092023;28;20085;-68
2021/04/14 12:01:24;;;;;;;5.77;0.70;;;;;;;;;;5079921;28;20473;-68
2021/04/14 12:03:50;;;;;;;3.07;0.40;;;;;;;;;;5091672;28;20046;-68
2021/04/14 12:06:15;;;;;;;2.07;0.60;;;;;;;;;;5088367;28;20024;-68
2021/04/14 12:08:40;;;;;;;2.00;1.00;;;;;;;;;;5080137;28;20468;-68
2021/04/14 12:11:13;;;;;;;1.17;0.50;;;;;;;;;;5089456;28;20115;-68
2021/04/14 12:13:39;;;;;;;3.00;0.90;;;;;;;;;;5091926;28;20032;-68
2021/04/14 12:16:04;;;;;;;2.60;0.63;;;;;;;;;;5090728;28;20420;-68
2021/04/14 12:18:29;;;;;;;1.13;0.57;;;;;;;;;;5091891;28;20078;-67
2021/04/14 12:20:54;;;;;;;1.83;0.60;;;;;;;;;;5093408;28;20492;-67
2021/04/14 12:23:20;;;;;;;1.10;0.57;;;;;;;;;;5082370;28;20085;-67
2021/04/14 12:25:45;;;;;;;4.10;0.60;;;;;;;;;;5082198;28;20373;-67
2021/04/14 12:28:10;;;;;;;1.40;0.50;;;;;;;;;;5085819;28;20039;-67
2021/04/14 12:30:36;;;;;;;1.70;0.40;;;;;;;;;;5086321;28;20061;-67
2021/04/14 12:33:01;;;;;;;2.23;0.90;;;;;;;;;;5091679;28;20073;-68
2021/04/14 12:35:26;;;;;;;0.63;0.50;;;;;;;;;;5083350;28;20103;-68
2021/04/14 12:37:52;;;;;;;1.17;0.47;;;;;;;;;;5093526;28;20024;-68
2021/04/14 12:40:18;;;;;;;0.80;0.30;;;;;;;;;;5085217;28;20028;-68
2021/04/14 12:42:43;;;;;;;1.53;0.50;;;;;;;;;;5092112;28;20031;-68
2021/04/14 12:45:20;;;;;;;0.80;0.30;;;;;;;;;;5090319;28;20024;-68
2021/04/14 12:47:45;;;;;;;5.33;0.70;;;;;;;;;;5092466;28;20024;-68
2021/04/14 12:50:10;;;;;;;5.80;0.90;;;;;;;;;;5083840;28;20035;-68
2021/04/14 12:52:42;;;;;;;1.03;0.47;;;;;;;;;;5092581;28;20027;-68
2021/04/14 12:55:16;;;;;;;1.35;0.60;;;;;;;;;;5089576;28;20059;-68
2021/04/14 12:57:42;;;;;;;2.30;0.50;;;;;;;;;;5082081;28;20504;-68
2021/04/14 13:00:10;;;;;;;0.50;0.30;;;;;;;;;;5082737;28;20024;-68
2021/04/14 13:02:35;;;;;;;1.23;0.70;;;;;;;;;;5080214;28;20095;-68
2021/04/14 13:05:13;;;;;;;3.13;0.50;;;;;;;;;;5088017;28;20444;-68
2021/04/14 13:07:42;;;;;;;1.43;0.50;;;;;;;;;;5092201;28;20107;-68
2021/04/14 13:10:09;;;;;;;2.93;0.50;;;;;;;;;;5088185;28;20028;-68
2021/04/14 13:12:37;;;;;;;2.47;0.40;;;;;;;;;;5092167;28;20027;-68
2021/04/14 13:15:02;;;;;;;1.83;0.60;;;;;;;;;;5090536;28;20535;-68
2021/04/14 13:17:30;;;;;;;3.53;0.60;;;;;;;;;;5089704;28;20115;-68
2021/04/14 13:19:56;;;;;;;2.57;0.50;;;;;;;;;;5091136;28;20032;-68
2021/04/14 13:22:22;;;;;;;2.23;0.70;;;;;;;;;;5091376;28;20094;-67
2021/04/14 13:25:03;;;;;;;3.63;0.80;;;;;;;;;;5083655;28;20031;-68
2021/04/14 13:27:47;;;;;;;2.25;0.70;;;;;;;;;;5085370;28;20104;-67
2021/04/14 13:30:22;;;;;;;2.93;0.70;;;;;;;;;;5085325;28;20029;-67
2021/04/14 13:33:07;;;;;;;2.40;0.60;;;;;;;;;;5083614;28;20085;-67
2021/04/14 13:35:39;;;;;;;3.77;0.50;;;;;;;;;;5080946;28;20040;-67
2021/04/14 13:38:10;;;;;;;11.38;1.02;;;;;;;;;;5083442;28;20031;-68
2021/04/14 13:40:38;;;;;;;1.33;0.50;;;;;;;;;;5090893;28;20107;-67
2021/04/14 13:43:06;;;;;;;2.37;0.80;;;;;;;;;;5091068;28;20020;-67
2021/04/14 13:45:50;;;;;;;1.63;0.60;;;;;;;;;;5082799;28;20124;-67
2021/04/14 13:48:21;;;;;;;0.93;0.50;;;;;;;;;;5090615;28;20415;-67
2021/04/14 13:50:46;;;;;;;1.23;0.50;;;;;;;;;;5083648;28;20081;-67
2021/04/14 13:53:14;;;;;;;1.77;0.53;;;;;;;;;;5087010;28;20053;-67
2021/04/14 13:55:40;;;;;;;2.23;0.50;;;;;;;;;;5085088;28;20024;-67
2021/04/14 13:58:13;;;;;;;1.63;0.70;;;;;;;;;;5085686;28;20027;-67
2021/04/14 14:00:42;;;;;;;1.47;0.70;;;;;;;;;;5080992;28;20031;-67
2021/04/14 14:03:07;;;;;;;1.53;0.70;;;;;;;;;;5083359;28;20031;-67
2021/04/14 14:05:35;;;;;;;1.40;0.70;;;;;;;;;;5089375;28;20044;-66
2021/04/14 14:08:19;;;;;;;3.60;0.70;;;;;;;;;;5089807;28;20038;-66
2021/04/14 14:10:44;;;;;;;2.50;0.80;;;;;;;;;;5079749;28;20419;-67
2021/04/14 14:13:18;;;;;;;1.27;0.70;;;;;;;;;;5086142;28;20032;-67
2021/04/14 14:16:02;;;;;;;1.77;0.80;;;;;;;;;;5086408;28;20480;-67
2021/04/14 14:18:27;;;;;;;3.67;0.63;;;;;;;;;;5084287;28;20035;-67
2021/04/14 14:20:56;;;;;;;1.83;0.70;;;;;;;;;;5081039;28;20028;-67
2021/04/14 14:23:22;;;;;;;3.17;0.90;;;;;;;;;;5090014;28;20436;-67
2021/04/14 14:25:51;;;;;;;5.43;1.40;;;;;;;;;;5078484;28;20016;-67
2021/04/14 14:28:17;;;;;;;3.40;1.00;;;;;;;;;;5088943;28;20121;-67
2021/04/14 14:30:42;;;;;;;2.57;1.00;;;;;;;;;;5082267;28;20094;-67
2021/04/14 14:33:07;;;;;;;4.07;1.53;;;;;;;;;;5083530;28;20071;-67
2021/04/14 14:35:32;;;;;;;1.40;0.77;;;;;;;;;;5078872;28;20021;-67
2021/04/14 14:38:19;;;;;;;4.20;1.00;;;;;;;;;;5077079;28;20027;-67
2021/04/14 14:40:47;;;;;;;0.90;0.53;;;;;;;;;;5075863;28;20024;-67
2021/04/14 14:43:16;;;;;;;1.53;0.90;;;;;;;;;;5087998;28;20277;-67
2021/04/14 14:45:41;;;;;;;1.83;1.00;;;;;;;;;;5078278;28;20657;-67